Time,TemperatureF,DewpointF,PressureIn,WindDirection,WindDirectionDegrees,WindSpeedMPH,WindSpeedGustMPH,Humidity,HourlyPrecipIn,Conditions,Clouds,dailyrainin,SoftwareType,DateUTC
2013-02-08 00:01:00,69.6,67.8,29.85,South,180,2.0,5.0,94,0.00,,,0.00,meteohub,2013-02-08 05:01:00,
2013-02-08 00:02:00,69.6,67.8,29.85,South,180,2.0,5.0,94,0.00,,,0.00,meteohub,2013-02-08 05:02:00,
2013-02-08 00:05:00,69.4,67.6,29.85,South,180,2.0,5.0,94,0.00,,,0.00,meteohub,2013-02-08 05:05:00,
2013-02-08 00:10:00,69.4,68.0,29.83,South,180,2.0,4.0,95,0.00,,,0.00,meteohub,2013-02-08 05:10:00,
2013-02-08 00:15:00,69.4,68.0,29.84,South,180,3.0,4.0,95,0.00,,,0.00,meteohub,2013-02-08 05:15:00,
2013-02-08 00:20:00,69.4,68.0,29.84,SW,225,3.0,7.0,95,0.00,,,0.00,meteohub,2013-02-08 05:20:00,
2013-02-08 00:25:00,69.6,67.8,29.83,South,180,4.0,7.0,94,0.00,,,0.00,meteohub,2013-02-08 05:25:00,
2013-02-08 00:30:00,69.6,67.8,29.84,South,180,2.0,7.0,94,0.00,,,0.00,meteohub,2013-02-08 05:30:00,
2013-02-08 00:36:00,69.4,67.6,29.83,SW,225,3.0,7.0,94,0.00,,,0.00,meteohub,2013-02-08 05:36:00,
2013-02-08 00:41:00,69.6,67.8,29.83,SE,135,4.0,5.0,94,0.00,,,0.00,meteohub,2013-02-08 05:41:00,
2013-02-08 00:46:00,69.6,67.8,29.83,SW,225,4.0,6.0,94,0.00,,,0.00,meteohub,2013-02-08 05:46:00,
2013-02-08 00:51:00,69.6,67.8,29.83,South,180,1.0,6.0,94,0.00,,,0.00,meteohub,2013-02-08 05:51:00,
2013-02-08 00:56:00,69.3,67.8,29.81,South,180,2.0,6.0,95,0.00,,,0.00,meteohub,2013-02-08 05:56:00,
2013-02-08 01:01:00,69.3,67.8,29.80,WNW,293,3.0,4.0,95,0.00,,,0.00,meteohub,2013-02-08 06:01:00,
2013-02-08 01:06:00,69.3,68.0,29.81,SW,225,4.0,4.0,96,0.00,,,0.00,meteohub,2013-02-08 06:06:00,
2013-02-08 01:12:00,69.3,68.0,29.82,South,180,4.0,7.0,96,0.00,,,0.00,meteohub,2013-02-08 06:12:00,
2013-02-08 01:17:00,69.4,68.0,29.83,SW,225,3.0,7.0,95,0.00,,,0.00,meteohub,2013-02-08 06:17:00,
2013-02-08 01:22:00,69.4,68.0,29.83,SW,225,3.0,7.0,95,0.00,,,0.00,meteohub,2013-02-08 06:22:00,
2013-02-08 01:27:00,69.4,68.0,29.84,West,270,2.0,4.0,95,0.00,,,0.00,meteohub,2013-02-08 06:27:00,
2013-02-08 01:32:00,69.3,67.8,29.85,West,270,1.0,4.0,95,0.00,,,0.00,meteohub,2013-02-08 06:32:00,
2013-02-08 01:37:00,69.4,68.0,29.84,SW,225,0.0,3.0,95,0.00,,,0.00,meteohub,2013-02-08 06:37:00,
2013-02-08 01:42:00,69.1,67.6,29.84,SW,225,0.0,2.0,95,0.00,,,0.00,meteohub,2013-02-08 06:42:00,
2013-02-08 01:47:00,69.1,67.8,29.84,South,180,2.0,2.0,96,0.00,,,0.00,meteohub,2013-02-08 06:47:00,
2013-02-08 01:52:00,69.1,67.8,29.83,South,180,1.0,2.0,96,0.00,,,0.00,meteohub,2013-02-08 06:52:00,
2013-02-08 01:57:00,68.9,67.6,29.82,South,180,1.0,2.0,96,0.00,,,0.00,meteohub,2013-02-08 06:57:00,
2013-02-08 02:02:00,69.1,68.2,29.82,SW,225,2.0,2.0,97,0.00,,,0.00,meteohub,2013-02-08 07:02:00,
2013-02-08 02:07:00,69.1,68.5,29.82,South,180,3.0,3.0,98,0.00,,,0.00,meteohub,2013-02-08 07:07:00,
2013-02-08 02:12:00,69.3,68.4,29.82,South,180,2.0,3.0,97,0.00,,,0.00,meteohub,2013-02-08 07:12:00,
2013-02-08 02:17:00,69.3,68.7,29.81,South,180,3.0,3.0,98,0.00,,,0.00,meteohub,2013-02-08 07:17:00,
2013-02-08 02:22:00,69.3,68.4,29.81,SE,135,2.0,3.0,97,0.00,,,0.00,meteohub,2013-02-08 07:22:00,
2013-02-08 02:27:00,69.1,68.5,29.81,South,180,3.0,3.0,98,0.00,,,0.00,meteohub,2013-02-08 07:27:00,
2013-02-08 02:32:00,69.1,68.5,29.81,South,180,4.0,4.0,98,0.00,,,0.00,meteohub,2013-02-08 07:32:00,
2013-02-08 02:38:00,69.3,68.7,29.81,South,180,3.0,5.0,98,0.00,,,0.00,meteohub,2013-02-08 07:38:00,
2013-02-08 02:43:00,69.4,68.9,29.81,SE,135,4.0,5.0,98,0.00,,,0.00,meteohub,2013-02-08 07:43:00,
2013-02-08 02:48:00,69.6,69.1,29.81,SW,225,4.0,6.0,98,0.00,,,0.00,meteohub,2013-02-08 07:48:00,
2013-02-08 02:53:00,69.6,69.1,29.81,South,180,4.0,6.0,98,0.00,,,0.00,meteohub,2013-02-08 07:53:00,
2013-02-08 02:58:00,69.6,69.1,29.81,SW,225,4.0,6.0,98,0.00,,,0.00,meteohub,2013-02-08 07:58:00,
2013-02-08 03:03:00,69.8,69.3,29.81,South,180,2.0,5.0,98,0.00,,,0.00,meteohub,2013-02-08 08:03:00,
2013-02-08 03:08:00,70.0,69.4,29.81,SW,225,2.0,6.0,98,0.00,,,0.00,meteohub,2013-02-08 08:08:00,
2013-02-08 03:14:00,69.8,69.4,29.81,SW,225,4.0,6.0,99,0.00,,,0.00,meteohub,2013-02-08 08:14:00,
2013-02-08 03:19:00,69.8,69.4,29.81,SW,225,3.0,6.0,99,0.00,,,0.00,meteohub,2013-02-08 08:19:00,
2013-02-08 03:24:00,69.8,69.4,29.81,SW,225,2.0,6.0,99,0.00,,,0.00,meteohub,2013-02-08 08:24:00,
2013-02-08 03:29:00,69.8,69.4,29.82,SW,225,3.0,4.0,99,0.00,,,0.00,meteohub,2013-02-08 08:29:00,
2013-02-08 03:34:00,69.8,69.4,29.82,SW,225,2.0,4.0,99,0.00,,,0.00,meteohub,2013-02-08 08:34:00,
2013-02-08 03:39:00,69.6,69.3,29.82,South,180,2.0,4.0,99,0.00,,,0.00,meteohub,2013-02-08 08:39:00,
2013-02-08 03:44:00,69.6,69.3,29.82,SW,225,1.0,4.0,99,0.00,,,0.00,meteohub,2013-02-08 08:44:00,
2013-02-08 03:50:00,69.4,69.1,29.82,SW,225,2.0,3.0,99,0.00,,,0.00,meteohub,2013-02-08 08:50:00,
2013-02-08 03:55:00,69.4,69.1,29.82,SW,225,2.0,3.0,99,0.00,,,0.00,meteohub,2013-02-08 08:55:00,
2013-02-08 04:00:00,69.3,68.9,29.82,West,270,4.0,4.0,99,0.00,,,0.00,meteohub,2013-02-08 09:00:00,
2013-02-08 04:05:00,69.3,68.9,29.83,West,270,1.0,3.0,99,0.00,,,0.00,meteohub,2013-02-08 09:05:00,
2013-02-08 04:10:00,69.3,68.9,29.83,SW,225,1.0,4.0,99,0.00,,,0.00,meteohub,2013-02-08 09:10:00,
2013-02-08 04:15:00,69.1,68.7,29.82,SW,225,2.0,4.0,99,0.00,,,0.00,meteohub,2013-02-08 09:15:00,
2013-02-08 04:20:00,69.1,68.7,29.82,South,180,2.0,3.0,99,0.00,,,0.00,meteohub,2013-02-08 09:20:00,
2013-02-08 04:25:00,69.1,68.7,29.82,SW,225,5.0,5.0,99,0.00,,,0.00,meteohub,2013-02-08 09:25:00,
2013-02-08 04:30:00,69.3,68.9,29.82,SW,225,4.0,5.0,99,0.00,,,0.00,meteohub,2013-02-08 09:30:00,
2013-02-08 04:36:00,69.3,68.9,29.81,SW,225,4.0,5.0,99,0.00,,,0.00,meteohub,2013-02-08 09:36:00,
2013-02-08 04:41:00,69.3,68.9,29.81,SW,225,2.0,5.0,99,0.00,,,0.00,meteohub,2013-02-08 09:41:00,
2013-02-08 04:46:00,69.3,68.9,29.82,SW,225,2.0,4.0,99,0.00,,,0.00,meteohub,2013-02-08 09:46:00,
2013-02-08 04:51:00,69.3,68.9,29.82,SW,225,2.0,4.0,99,0.00,,,0.00,meteohub,2013-02-08 09:51:00,
2013-02-08 04:56:00,69.3,68.9,29.82,SW,225,3.0,4.0,99,0.00,,,0.00,meteohub,2013-02-08 09:56:00,
2013-02-08 05:01:00,69.3,68.9,29.82,SW,225,2.0,3.0,99,0.00,,,0.00,meteohub,2013-02-08 10:01:00,
2013-02-08 05:06:00,69.1,68.7,29.82,South,180,3.0,3.0,99,0.00,,,0.00,meteohub,2013-02-08 10:06:00,
2013-02-08 05:11:00,69.1,68.7,29.81,SW,225,1.0,3.0,99,0.00,,,0.00,meteohub,2013-02-08 10:11:00,
2013-02-08 05:16:00,68.9,68.5,29.81,SW,225,2.0,3.0,99,0.00,,,0.00,meteohub,2013-02-08 10:16:00,
2013-02-08 05:21:00,69.1,68.7,29.81,South,180,2.0,3.0,99,0.00,,,0.00,meteohub,2013-02-08 10:21:00,
2013-02-08 05:27:00,69.1,68.7,29.81,South,180,1.0,3.0,99,0.00,,,0.00,meteohub,2013-02-08 10:27:00,
2013-02-08 05:32:00,69.3,68.9,29.81,SW,225,3.0,3.0,99,0.00,,,0.00,meteohub,2013-02-08 10:32:00,
2013-02-08 05:37:00,69.3,68.9,29.82,West,270,3.0,5.0,99,0.00,,,0.00,meteohub,2013-02-08 10:37:00,
2013-02-08 05:42:00,69.3,68.9,29.83,SW,225,3.0,5.0,99,0.00,,,0.00,meteohub,2013-02-08 10:42:00,
2013-02-08 05:47:00,69.3,68.9,29.83,West,270,3.0,4.0,99,0.00,,,0.00,meteohub,2013-02-08 10:47:00,
2013-02-08 05:52:00,69.3,68.9,29.83,South,180,3.0,4.0,99,0.00,,,0.00,meteohub,2013-02-08 10:52:00,
2013-02-08 05:57:00,69.1,68.7,29.82,SW,225,2.0,4.0,99,0.00,,,0.00,meteohub,2013-02-08 10:57:00,
2013-02-08 06:02:00,69.1,68.7,29.83,SW,225,2.0,4.0,99,0.00,,,0.00,meteohub,2013-02-08 11:02:00,
2013-02-08 06:07:00,69.1,68.7,29.83,SW,225,2.0,4.0,99,0.00,,,0.00,meteohub,2013-02-08 11:07:00,
2013-02-08 06:12:00,68.9,68.5,29.84,SW,225,1.0,4.0,99,0.00,,,0.00,meteohub,2013-02-08 11:12:00,
2013-02-08 06:17:00,68.7,68.4,29.84,SW,225,2.0,3.0,99,0.00,,,0.00,meteohub,2013-02-08 11:17:00,
2013-02-08 06:22:00,68.7,68.4,29.85,SW,225,1.0,3.0,99,0.00,,,0.00,meteohub,2013-02-08 11:22:00,
2013-02-08 06:27:00,68.7,68.4,29.84,SW,225,2.0,3.0,99,0.00,,,0.00,meteohub,2013-02-08 11:27:00,
2013-02-08 06:32:00,68.7,68.4,29.85,SW,225,2.0,3.0,99,0.00,,,0.00,meteohub,2013-02-08 11:32:00,
2013-02-08 06:37:00,68.7,68.4,29.85,SW,225,3.0,3.0,99,0.00,,,0.00,meteohub,2013-02-08 11:37:00,
2013-02-08 06:42:00,68.9,68.5,29.85,South,180,2.0,3.0,99,0.00,,,0.00,meteohub,2013-02-08 11:42:00,
2013-02-08 06:47:00,69.1,68.7,29.86,SW,225,3.0,3.0,99,0.00,,,0.00,meteohub,2013-02-08 11:47:00,
2013-02-08 06:52:00,69.1,68.7,29.85,SW,225,1.0,3.0,99,0.00,,,0.00,meteohub,2013-02-08 11:52:00,
2013-02-08 06:57:00,69.1,68.7,29.86,SW,225,3.0,3.0,99,0.00,,,0.00,meteohub,2013-02-08 11:57:00,
2013-02-08 07:02:00,69.1,68.7,29.85,SW,225,2.0,3.0,99,0.00,,,0.00,meteohub,2013-02-08 12:02:00,
2013-02-08 07:07:00,69.1,68.7,29.86,SW,225,1.0,3.0,99,0.00,,,0.00,meteohub,2013-02-08 12:07:00,
2013-02-08 07:12:00,69.3,68.9,29.86,South,180,4.0,4.0,99,0.00,,,0.00,meteohub,2013-02-08 12:12:00,
2013-02-08 07:17:00,69.6,69.3,29.86,SW,225,4.0,4.0,99,0.00,,,0.00,meteohub,2013-02-08 12:17:00,
2013-02-08 07:22:00,69.8,69.4,29.85,SW,225,3.0,4.0,99,0.00,,,0.00,meteohub,2013-02-08 12:22:00,
2013-02-08 07:27:00,70.2,69.8,29.86,SSW,203,2.0,4.0,99,0.00,,,0.00,meteohub,2013-02-08 12:27:00,
2013-02-08 07:32:00,70.2,69.8,29.86,SW,225,3.0,4.0,99,0.00,,,0.00,meteohub,2013-02-08 12:32:00,
2013-02-08 07:37:00,70.0,69.6,29.87,SW,225,2.0,4.0,99,0.00,,,0.00,meteohub,2013-02-08 12:37:00,
2013-02-08 07:42:00,70.0,69.6,29.87,South,180,2.0,4.0,99,0.00,,,0.00,meteohub,2013-02-08 12:42:00,
2013-02-08 07:47:00,70.5,70.2,29.87,South,180,4.0,4.0,99,0.00,,,0.00,meteohub,2013-02-08 12:47:00,
2013-02-08 07:52:00,71.1,70.7,29.88,SW,225,2.0,5.0,99,0.00,,,0.00,meteohub,2013-02-08 12:52:00,
2013-02-08 07:57:00,71.6,71.2,29.87,SW,225,4.0,5.0,99,0.00,,,0.00,meteohub,2013-02-08 12:57:00,
2013-02-08 08:02:00,71.6,71.2,29.87,SW,225,4.0,7.0,99,0.00,,,0.00,meteohub,2013-02-08 13:02:00,
2013-02-08 08:07:00,71.6,71.2,29.88,SW,225,4.0,7.0,99,0.00,,,0.00,meteohub,2013-02-08 13:07:00,
2013-02-08 08:12:00,71.6,71.2,29.88,SW,225,6.0,7.0,99,0.00,,,0.00,meteohub,2013-02-08 13:12:00,
2013-02-08 08:17:00,71.8,71.4,29.88,South,180,4.0,7.0,99,0.00,,,0.00,meteohub,2013-02-08 13:17:00,
2013-02-08 08:22:00,72.1,71.8,29.88,SW,225,4.0,7.0,99,0.00,,,0.00,meteohub,2013-02-08 13:22:00,
2013-02-08 08:28:00,73.0,72.7,29.88,South,180,4.0,7.0,99,0.00,,,0.00,meteohub,2013-02-08 13:28:00,
2013-02-08 08:33:00,74.1,73.8,29.88,SW,225,7.0,7.0,99,0.00,,,0.00,meteohub,2013-02-08 13:33:00,
2013-02-08 08:38:00,74.7,74.3,29.88,SW,225,3.0,8.0,99,0.00,,,0.00,meteohub,2013-02-08 13:38:00,
2013-02-08 08:43:00,75.4,74.1,29.88,SW,225,4.0,8.0,96,0.00,,,0.00,meteohub,2013-02-08 13:43:00,
2013-02-08 08:48:00,76.3,74.7,29.89,West,270,5.0,8.0,95,0.00,,,0.00,meteohub,2013-02-08 13:48:00,
2013-02-08 08:53:00,77.4,74.5,29.88,SW,225,4.0,6.0,91,0.00,,,0.00,meteohub,2013-02-08 13:53:00,
2013-02-08 08:59:00,77.7,74.5,29.88,SW,225,4.0,5.0,90,0.00,,,0.00,meteohub,2013-02-08 13:59:00,
2013-02-08 09:04:00,77.5,73.8,29.89,West,270,7.0,7.0,88,0.00,,,0.00,meteohub,2013-02-08 14:04:00,
2013-02-08 09:09:00,77.5,73.4,29.89,South,180,5.0,7.0,87,0.00,,,0.00,meteohub,2013-02-08 14:09:00,
2013-02-08 09:14:00,76.8,72.7,29.89,South,180,5.0,7.0,87,0.00,,,0.00,meteohub,2013-02-08 14:14:00,
2013-02-08 09:19:00,75.7,72.3,29.90,SW,225,6.0,11.0,89,0.00,,,0.00,meteohub,2013-02-08 14:19:00,
2013-02-08 09:24:00,75.4,72.3,29.90,NW,315,5.0,12.0,90,0.00,,,0.00,meteohub,2013-02-08 14:24:00,
2013-02-08 09:29:00,75.6,72.7,29.90,West,270,8.0,12.0,91,0.00,,,0.00,meteohub,2013-02-08 14:29:00,
2013-02-08 09:35:00,75.9,72.9,29.90,SW,225,7.0,12.0,90,0.00,,,0.00,meteohub,2013-02-08 14:35:00,
2013-02-08 09:40:00,76.8,73.0,29.90,SW,225,7.0,9.0,88,0.00,,,0.00,meteohub,2013-02-08 14:40:00,
2013-02-08 09:45:00,77.4,72.9,29.90,SW,225,8.0,8.0,86,0.00,,,0.00,meteohub,2013-02-08 14:45:00,
2013-02-08 09:50:00,78.1,73.2,29.90,East,90,5.0,8.0,85,0.00,,,0.00,meteohub,2013-02-08 14:50:00,
2013-02-08 09:55:00,78.6,73.0,29.90,South,180,4.0,8.0,83,0.00,,,0.00,meteohub,2013-02-08 14:55:00,
2013-02-08 10:00:00,79.0,73.4,29.90,SW,225,4.0,11.0,83,0.00,,,0.00,meteohub,2013-02-08 15:00:00,
2013-02-08 10:05:00,79.2,73.2,29.91,SW,225,4.0,11.0,82,0.00,,,0.00,meteohub,2013-02-08 15:05:00,
2013-02-08 10:11:00,79.5,72.5,29.90,SW,225,12.0,12.0,79,0.00,,,0.00,meteohub,2013-02-08 15:11:00,
2013-02-08 10:16:00,79.5,72.5,29.90,South,180,11.0,13.0,79,0.00,,,0.00,meteohub,2013-02-08 15:16:00,
2013-02-08 10:21:00,79.7,72.7,29.90,South,180,13.0,13.0,79,0.00,,,0.00,meteohub,2013-02-08 15:21:00,
2013-02-08 10:26:00,79.9,72.9,29.90,NNW,338,6.0,13.0,79,0.00,,,0.00,meteohub,2013-02-08 15:26:00,
2013-02-08 10:31:00,80.2,72.3,29.90,SW,225,5.0,13.0,77,0.00,,,0.00,meteohub,2013-02-08 15:31:00,
2013-02-08 10:36:00,81.1,72.9,29.91,West,270,4.0,13.0,76,0.00,,,0.00,meteohub,2013-02-08 15:36:00,
2013-02-08 10:41:00,81.1,72.5,29.91,WSW,248,4.0,11.0,75,0.00,,,0.00,meteohub,2013-02-08 15:41:00,
2013-02-08 10:47:00,80.6,72.3,29.91,North,0,4.0,9.0,76,0.00,,,0.00,meteohub,2013-02-08 15:47:00,
2013-02-08 10:52:00,79.9,72.0,29.91,SW,225,8.0,9.0,77,0.00,,,0.00,meteohub,2013-02-08 15:52:00,
2013-02-08 10:57:00,79.7,71.8,29.91,South,180,5.0,9.0,77,0.00,,,0.00,meteohub,2013-02-08 15:57:00,
2013-02-08 11:02:00,80.2,72.3,29.90,West,270,4.0,9.0,77,0.00,,,0.00,meteohub,2013-02-08 16:02:00,
2013-02-08 11:07:00,79.9,72.0,29.90,SW,225,5.0,8.0,77,0.00,,,0.00,meteohub,2013-02-08 16:07:00,
2013-02-08 11:12:00,79.9,72.3,29.90,South,180,7.0,12.0,78,0.00,,,0.00,meteohub,2013-02-08 16:12:00,
2013-02-08 11:17:00,80.4,72.5,29.90,West,270,3.0,12.0,77,0.00,,,0.00,meteohub,2013-02-08 16:17:00,
2013-02-08 11:22:00,81.7,72.5,29.90,NW,315,8.0,12.0,74,0.00,,,0.00,meteohub,2013-02-08 16:22:00,
2013-02-08 11:27:00,81.5,72.3,29.89,SW,225,5.0,9.0,74,0.00,,,0.00,meteohub,2013-02-08 16:27:00,
2013-02-08 11:32:00,81.1,72.1,29.90,SW,225,4.0,9.0,74,0.00,,,0.00,meteohub,2013-02-08 16:32:00,
2013-02-08 11:38:00,80.8,72.1,29.89,NW,315,4.0,9.0,75,0.00,,,0.00,meteohub,2013-02-08 16:38:00,
2013-02-08 11:43:00,81.0,72.7,29.89,South,180,5.0,8.0,76,0.00,,,0.00,meteohub,2013-02-08 16:43:00,
2013-02-08 11:48:00,80.4,72.1,29.89,NW,315,11.0,11.0,76,0.00,,,0.00,meteohub,2013-02-08 16:48:00,
2013-02-08 11:53:00,81.3,72.7,29.89,NW,315,4.0,11.0,75,0.00,,,0.00,meteohub,2013-02-08 16:53:00,
2013-02-08 11:58:00,81.3,71.8,29.90,West,270,6.0,11.0,73,0.00,,,0.00,meteohub,2013-02-08 16:58:00,
2013-02-08 12:03:00,81.3,71.8,29.89,West,270,6.0,11.0,73,0.00,,,0.00,meteohub,2013-02-08 17:03:00,
2013-02-08 12:09:00,81.9,71.6,29.88,WSW,248,4.0,9.0,71,0.00,,,0.00,meteohub,2013-02-08 17:09:00,
2013-02-08 12:14:00,81.9,71.6,29.89,WSW,248,4.0,6.0,71,0.00,,,0.00,meteohub,2013-02-08 17:14:00,
2013-02-08 12:19:00,82.6,72.7,29.88,NW,315,4.0,6.0,72,0.00,,,0.00,meteohub,2013-02-08 17:19:00,
2013-02-08 12:25:00,84.0,72.7,29.89,SW,225,3.0,8.0,69,0.00,,,0.00,meteohub,2013-02-08 17:25:00,
2013-02-08 12:30:00,85.1,72.5,29.88,SW,225,4.0,8.0,66,0.00,,,0.00,meteohub,2013-02-08 17:30:00,
2013-02-08 12:35:00,85.3,71.8,29.89,SE,135,4.0,8.0,64,0.00,,,0.00,meteohub,2013-02-08 17:35:00,
2013-02-08 12:40:00,85.8,72.1,29.88,NW,315,3.0,7.0,64,0.00,,,0.00,meteohub,2013-02-08 17:40:00,
2013-02-08 12:45:00,84.7,71.6,29.88,SW,225,6.0,8.0,65,0.00,,,0.00,meteohub,2013-02-08 17:45:00,
2013-02-08 12:50:00,85.1,71.6,29.87,NW,315,4.0,8.0,64,0.00,,,0.00,meteohub,2013-02-08 17:50:00,
2013-02-08 12:55:00,85.1,71.1,29.87,West,270,6.0,8.0,63,0.00,,,0.00,meteohub,2013-02-08 17:55:00,
2013-02-08 13:01:00,84.2,70.7,29.87,NW,315,7.0,8.0,64,0.00,,,0.00,meteohub,2013-02-08 18:01:00,
2013-02-08 13:06:00,84.0,71.1,29.87,North,0,4.0,8.0,65,0.00,,,0.00,meteohub,2013-02-08 18:06:00,
2013-02-08 13:11:00,84.6,71.1,29.87,North,0,7.0,8.0,64,0.00,,,0.00,meteohub,2013-02-08 18:11:00,
2013-02-08 13:16:00,84.6,71.1,29.87,West,270,4.0,8.0,64,0.00,,,0.00,meteohub,2013-02-08 18:16:00,
2013-02-08 13:21:00,85.3,71.2,29.87,North,0,4.0,8.0,63,0.00,,,0.00,meteohub,2013-02-08 18:21:00,
2013-02-08 13:26:00,85.3,71.2,29.86,SW,225,4.0,8.0,63,0.00,,,0.00,meteohub,2013-02-08 18:26:00,
2013-02-08 13:31:00,85.1,71.1,29.86,NW,315,4.0,6.0,63,0.00,,,0.00,meteohub,2013-02-08 18:31:00,
2013-02-08 13:37:00,86.5,72.0,29.86,West,270,2.0,6.0,62,0.00,,,0.00,meteohub,2013-02-08 18:37:00,
2013-02-08 13:42:00,87.1,71.4,29.86,NW,315,4.0,6.0,60,0.00,,,0.00,meteohub,2013-02-08 18:42:00,
2013-02-08 13:47:00,86.9,70.9,29.85,NW,315,4.0,6.0,59,0.00,,,0.00,meteohub,2013-02-08 18:47:00,
2013-02-08 13:52:00,87.3,71.6,29.85,East,90,4.0,6.0,60,0.00,,,0.00,meteohub,2013-02-08 18:52:00,
2013-02-08 13:57:00,87.4,70.9,29.85,NW,315,5.0,6.0,58,0.00,,,0.00,meteohub,2013-02-08 18:57:00,
2013-02-08 14:02:00,86.7,71.2,29.85,NW,315,7.0,7.0,60,0.00,,,0.00,meteohub,2013-02-08 19:02:00,
2013-02-08 14:07:00,84.2,71.2,29.85,West,270,6.0,7.0,65,0.00,,,0.00,meteohub,2013-02-08 19:07:00,
2013-02-08 14:12:00,83.7,71.1,29.85,West,270,2.0,7.0,66,0.00,,,0.00,meteohub,2013-02-08 19:12:00,
2013-02-08 14:17:00,83.8,71.2,29.84,NW,315,2.0,7.0,66,0.00,,,0.00,meteohub,2013-02-08 19:17:00,
2013-02-08 14:22:00,83.1,70.5,29.85,North,0,3.0,7.0,66,0.00,,,0.00,meteohub,2013-02-08 19:22:00,
2013-02-08 14:27:00,82.4,71.2,29.85,North,0,7.0,7.0,69,0.00,,,0.00,meteohub,2013-02-08 19:27:00,
2013-02-08 14:32:00,80.6,72.3,29.84,NW,315,2.0,7.0,76,0.00,,,0.00,meteohub,2013-02-08 19:32:00,
2013-02-08 14:37:00,79.9,73.2,29.85,North,0,4.0,9.0,80,0.00,,,0.00,meteohub,2013-02-08 19:37:00,
2013-02-08 14:42:00,78.6,73.0,29.85,West,270,3.0,9.0,83,0.00,,,0.00,meteohub,2013-02-08 19:42:00,
2013-02-08 14:47:00,77.7,73.2,29.85,West,270,4.0,9.0,86,0.00,,,0.00,meteohub,2013-02-08 19:47:00,
2013-02-08 14:52:00,77.2,73.0,29.85,SW,225,2.0,4.0,87,0.00,,,0.00,meteohub,2013-02-08 19:52:00,
2013-02-08 14:57:00,77.0,73.6,29.84,NW,315,1.0,4.0,89,0.01,,,0.00,meteohub,2013-02-08 19:57:00,
2013-02-08 15:02:00,77.0,73.6,29.84,SW,225,0.0,4.0,89,0.01,,,0.01,meteohub,2013-02-08 20:02:00,
2013-02-08 15:07:00,77.2,73.9,29.84,SW,225,1.0,2.0,90,0.01,,,0.01,meteohub,2013-02-08 20:07:00,
2013-02-08 15:12:00,77.2,73.9,29.84,SW,225,1.0,1.0,90,0.01,,,0.01,meteohub,2013-02-08 20:12:00,
2013-02-08 15:17:00,77.4,74.5,29.84,South,180,2.0,2.0,91,0.01,,,0.01,meteohub,2013-02-08 20:17:00,
2013-02-08 15:22:00,77.5,74.3,29.84,SW,225,2.0,2.0,90,0.01,,,0.01,meteohub,2013-02-08 20:22:00,
2013-02-08 15:27:00,78.1,74.3,29.83,SW,225,1.0,2.0,88,0.01,,,0.01,meteohub,2013-02-08 20:27:00,
2013-02-08 15:32:00,79.0,74.1,29.84,SW,225,4.0,4.0,85,0.01,,,0.01,meteohub,2013-02-08 20:32:00,
2013-02-08 15:37:00,81.1,73.9,29.84,SW,225,5.0,5.0,79,0.01,,,0.01,meteohub,2013-02-08 20:37:00,
2013-02-08 15:42:00,83.1,74.8,29.83,SW,225,4.0,5.0,76,0.01,,,0.01,meteohub,2013-02-08 20:42:00,
2013-02-08 15:47:00,82.9,73.8,29.83,SW,225,4.0,5.0,74,0.01,,,0.01,meteohub,2013-02-08 20:47:00,
2013-02-08 15:52:00,81.9,73.9,29.83,South,180,3.0,5.0,77,0.01,,,0.01,meteohub,2013-02-08 20:52:00,
2013-02-08 15:57:00,83.3,75.0,29.83,South,180,2.0,5.0,76,0.00,,,0.01,meteohub,2013-02-08 20:57:00,
2013-02-08 16:02:00,84.7,74.3,29.83,West,270,3.0,5.0,71,0.00,,,0.01,meteohub,2013-02-08 21:02:00,
2013-02-08 16:07:00,85.5,74.1,29.83,SW,225,2.0,5.0,69,0.00,,,0.01,meteohub,2013-02-08 21:07:00,
2013-02-08 16:12:00,86.4,74.1,29.83,SW,225,2.0,4.0,67,0.00,,,0.01,meteohub,2013-02-08 21:12:00,
2013-02-08 16:17:00,86.7,73.9,29.83,ESE,113,2.0,4.0,66,0.00,,,0.01,meteohub,2013-02-08 21:17:00,
2013-02-08 16:22:00,87.1,73.4,29.83,South,180,2.0,4.0,64,0.00,,,0.01,meteohub,2013-02-08 21:22:00,
2013-02-08 16:27:00,88.0,73.8,29.83,East,90,2.0,4.0,63,0.00,,,0.01,meteohub,2013-02-08 21:27:00,
2013-02-08 16:32:00,88.5,73.4,29.83,South,180,1.0,4.0,61,0.00,,,0.01,meteohub,2013-02-08 21:32:00,
2013-02-08 16:37:00,87.6,72.5,29.83,South,180,2.0,4.0,61,0.00,,,0.01,meteohub,2013-02-08 21:37:00,
2013-02-08 16:42:00,86.9,72.9,29.83,South,180,4.0,4.0,63,0.00,,,0.01,meteohub,2013-02-08 21:42:00,
2013-02-08 16:47:00,87.1,73.4,29.84,South,180,2.0,4.0,64,0.00,,,0.01,meteohub,2013-02-08 21:47:00,
2013-02-08 16:52:00,87.8,73.6,29.83,South,180,2.0,4.0,63,0.00,,,0.01,meteohub,2013-02-08 21:52:00,
2013-02-08 16:58:00,87.4,73.2,29.83,South,180,3.0,4.0,63,0.00,,,0.01,meteohub,2013-02-08 21:58:00,
2013-02-08 17:03:00,86.0,72.9,29.83,SW,225,0.0,3.0,65,0.00,,,0.01,meteohub,2013-02-08 22:03:00,
2013-02-08 17:08:00,86.2,73.0,29.83,South,180,2.0,3.0,65,0.00,,,0.01,meteohub,2013-02-08 22:08:00,
2013-02-08 17:13:00,85.6,72.1,29.84,SE,135,1.0,3.0,64,0.00,,,0.01,meteohub,2013-02-08 22:13:00,
2013-02-08 17:18:00,83.5,71.4,29.84,SW,225,0.0,2.0,67,0.00,,,0.01,meteohub,2013-02-08 22:18:00,
2013-02-08 17:23:00,82.4,71.2,29.84,South,180,0.0,2.0,69,0.00,,,0.01,meteohub,2013-02-08 22:23:00,
2013-02-08 17:28:00,82.0,71.8,29.84,South,180,1.0,2.0,71,0.00,,,0.01,meteohub,2013-02-08 22:28:00,
2013-02-08 17:33:00,81.5,71.6,29.84,SW,225,1.0,2.0,72,0.00,,,0.01,meteohub,2013-02-08 22:33:00,
2013-02-08 17:39:00,81.1,72.1,29.84,SW,225,2.0,2.0,74,0.00,,,0.01,meteohub,2013-02-08 22:39:00,
2013-02-08 17:44:00,80.6,72.0,29.84,South,180,0.0,2.0,75,0.00,,,0.01,meteohub,2013-02-08 22:44:00,
2013-02-08 17:49:00,79.9,72.0,29.85,East,90,4.0,4.0,77,0.00,,,0.01,meteohub,2013-02-08 22:49:00,
2013-02-08 17:54:00,79.0,72.7,29.84,East,90,7.0,7.0,81,0.00,,,0.01,meteohub,2013-02-08 22:54:00,
2013-02-08 17:59:00,78.1,72.9,29.84,East,90,8.0,8.0,84,0.00,,,0.01,meteohub,2013-02-08 22:59:00,
2013-02-08 18:04:00,77.5,72.7,29.85,East,90,5.0,9.0,85,0.00,,,0.01,meteohub,2013-02-08 23:04:00,
2013-02-08 18:09:00,77.2,72.7,29.85,East,90,7.0,9.0,86,0.00,,,0.01,meteohub,2013-02-08 23:09:00,
2013-02-08 18:14:00,77.0,72.5,29.85,SE,135,6.0,9.0,86,0.00,,,0.01,meteohub,2013-02-08 23:14:00,
2013-02-08 18:20:00,76.6,72.5,29.85,East,90,4.0,8.0,87,0.00,,,0.01,meteohub,2013-02-08 23:20:00,
2013-02-08 18:25:00,76.5,72.7,29.86,SE,135,3.0,8.0,88,0.00,,,0.01,meteohub,2013-02-08 23:25:00,
2013-02-08 18:30:00,76.3,72.5,29.86,East,90,4.0,7.0,88,0.00,,,0.01,meteohub,2013-02-08 23:30:00,
2013-02-08 18:35:00,76.3,72.5,29.85,East,90,4.0,8.0,88,0.00,,,0.01,meteohub,2013-02-08 23:35:00,
2013-02-08 18:40:00,76.1,72.7,29.85,East,90,4.0,8.0,89,0.00,,,0.01,meteohub,2013-02-08 23:40:00,
2013-02-08 18:45:00,75.9,72.5,29.86,SE,135,4.0,8.0,89,0.00,,,0.01,meteohub,2013-02-08 23:45:00,
2013-02-08 18:50:00,75.7,72.3,29.86,East,90,2.0,8.0,89,0.00,,,0.01,meteohub,2013-02-08 23:50:00,
2013-02-08 18:55:00,75.4,72.0,29.86,South,180,2.0,6.0,89,0.00,,,0.01,meteohub,2013-02-08 23:55:00,
2013-02-08 19:00:00,75.4,72.3,29.86,East,90,1.0,4.0,90,0.00,,,0.01,meteohub,2013-02-09 00:00:00,
2013-02-08 19:06:00,75.0,72.1,29.86,SE,135,2.0,2.0,91,0.00,,,0.00,meteohub,2013-02-09 00:06:00,
2013-02-08 19:11:00,74.8,72.0,29.86,SW,225,1.0,2.0,91,0.00,,,0.00,meteohub,2013-02-09 00:11:00,
2013-02-08 19:16:00,74.7,72.1,29.86,East,90,2.0,2.0,92,0.00,,,0.00,meteohub,2013-02-09 00:16:00,
2013-02-08 19:21:00,74.8,72.7,29.86,East,90,3.0,3.0,93,0.00,,,0.00,meteohub,2013-02-09 00:21:00,
2013-02-08 19:26:00,74.8,72.7,29.86,East,90,1.0,3.0,93,0.00,,,0.00,meteohub,2013-02-09 00:26:00,
2013-02-08 19:31:00,74.7,72.5,29.87,SE,135,2.0,3.0,93,0.00,,,0.00,meteohub,2013-02-09 00:31:00,
2013-02-08 19:37:00,74.7,72.5,29.87,SE,135,1.0,3.0,93,0.00,,,0.00,meteohub,2013-02-09 00:37:00,
2013-02-08 19:42:00,74.5,72.3,29.87,SE,135,3.0,3.0,93,0.00,,,0.00,meteohub,2013-02-09 00:42:00,
2013-02-08 19:47:00,74.5,72.7,29.87,SE,135,3.0,4.0,94,0.00,,,0.00,meteohub,2013-02-09 00:47:00,
2013-02-08 19:52:00,74.7,72.5,29.88,East,90,2.0,4.0,93,0.00,,,0.00,meteohub,2013-02-09 00:52:00,
2013-02-08 19:57:00,74.5,72.3,29.88,East,90,1.0,4.0,93,0.00,,,0.00,meteohub,2013-02-09 00:57:00,
2013-02-08 20:02:00,74.3,72.1,29.88,East,90,2.0,4.0,93,0.00,,,0.00,meteohub,2013-02-09 01:02:00,
2013-02-08 20:07:00,74.3,72.5,29.88,East,90,2.0,3.0,94,0.00,,,0.00,meteohub,2013-02-09 01:07:00,
2013-02-08 20:12:00,74.3,72.5,29.88,East,90,2.0,3.0,94,0.00,,,0.00,meteohub,2013-02-09 01:12:00,
2013-02-08 20:17:00,74.1,72.3,29.88,East,90,2.0,3.0,94,0.00,,,0.00,meteohub,2013-02-09 01:17:00,
2013-02-08 20:22:00,74.3,72.5,29.89,SE,135,2.0,3.0,94,0.00,,,0.00,meteohub,2013-02-09 01:22:00,
2013-02-08 20:27:00,74.1,72.3,29.88,East,90,2.0,3.0,94,0.00,,,0.00,meteohub,2013-02-09 01:27:00,
2013-02-08 20:32:00,74.1,72.3,29.89,East,90,2.0,3.0,94,0.00,,,0.00,meteohub,2013-02-09 01:32:00,
2013-02-08 20:37:00,74.1,72.3,29.89,East,90,1.0,3.0,94,0.00,,,0.00,meteohub,2013-02-09 01:37:00,
2013-02-08 20:42:00,73.9,72.1,29.89,SE,135,1.0,2.0,94,0.00,,,0.00,meteohub,2013-02-09 01:42:00,
2013-02-08 20:47:00,73.9,72.1,29.89,South,180,1.0,2.0,94,0.00,,,0.00,meteohub,2013-02-09 01:47:00,
2013-02-08 20:52:00,73.8,72.0,29.89,SE,135,1.0,2.0,94,0.00,,,0.00,meteohub,2013-02-09 01:52:00,
2013-02-08 20:57:00,73.9,72.5,29.90,SE,135,2.0,2.0,95,0.00,,,0.00,meteohub,2013-02-09 01:57:00,
2013-02-08 21:02:00,73.9,72.5,29.89,South,180,2.0,2.0,95,0.00,,,0.00,meteohub,2013-02-09 02:02:00,
2013-02-08 21:07:00,73.9,72.5,29.89,South,180,2.0,2.0,95,0.00,,,0.00,meteohub,2013-02-09 02:07:00,
2013-02-08 21:12:00,73.9,72.5,29.89,South,180,1.0,2.0,95,0.00,,,0.00,meteohub,2013-02-09 02:12:00,
2013-02-08 21:17:00,73.8,72.3,29.89,South,180,2.0,2.0,95,0.00,,,0.00,meteohub,2013-02-09 02:17:00,
2013-02-08 21:22:00,73.4,72.0,29.90,SW,225,2.0,2.0,95,0.00,,,0.00,meteohub,2013-02-09 02:22:00,
2013-02-08 21:27:00,73.4,72.1,29.90,South,180,2.0,2.0,96,0.00,,,0.00,meteohub,2013-02-09 02:27:00,
2013-02-08 21:32:00,73.2,72.0,29.90,South,180,2.0,2.0,96,0.00,,,0.00,meteohub,2013-02-09 02:32:00,
2013-02-08 21:37:00,73.0,71.8,29.90,South,180,0.0,2.0,96,0.00,,,0.00,meteohub,2013-02-09 02:37:00,
2013-02-08 21:42:00,72.9,71.6,29.90,South,180,0.0,2.0,96,0.00,,,0.00,meteohub,2013-02-09 02:42:00,
2013-02-08 21:47:00,72.7,71.4,29.89,South,180,0.0,2.0,96,0.00,,,0.00,meteohub,2013-02-09 02:47:00,
2013-02-08 21:52:00,72.1,71.2,29.90,South,180,1.0,2.0,97,0.00,,,0.00,meteohub,2013-02-09 02:52:00,
2013-02-08 21:57:00,72.1,71.2,29.90,South,180,1.0,2.0,97,0.00,,,0.00,meteohub,2013-02-09 02:57:00,
2013-02-08 22:02:00,72.1,71.6,29.90,West,270,1.0,2.0,98,0.00,,,0.00,meteohub,2013-02-09 03:02:00,
2013-02-08 22:07:00,72.0,71.4,29.91,SW,225,1.0,2.0,98,0.00,,,0.00,meteohub,2013-02-09 03:07:00,
2013-02-08 22:12:00,72.0,71.4,29.91,SW,225,0.0,2.0,98,0.00,,,0.00,meteohub,2013-02-09 03:12:00,
2013-02-08 22:17:00,71.6,71.1,29.91,SW,225,1.0,2.0,98,0.00,,,0.00,meteohub,2013-02-09 03:17:00,
2013-02-08 22:22:00,71.4,70.9,29.90,West,270,2.0,2.0,98,0.00,,,0.00,meteohub,2013-02-09 03:22:00,
2013-02-08 22:27:00,71.1,70.5,29.90,West,270,1.0,2.0,98,0.00,,,0.00,meteohub,2013-02-09 03:27:00,
2013-02-08 22:32:00,71.1,70.5,29.91,West,270,1.0,2.0,98,0.00,,,0.00,meteohub,2013-02-09 03:32:00,
2013-02-08 22:37:00,70.9,70.3,29.91,West,270,2.0,2.0,98,0.00,,,0.00,meteohub,2013-02-09 03:37:00,
2013-02-08 22:42:00,70.7,70.3,29.91,West,270,1.0,2.0,99,0.00,,,0.00,meteohub,2013-02-09 03:42:00,
2013-02-08 22:47:00,70.5,70.2,29.91,West,270,2.0,2.0,99,0.00,,,0.00,meteohub,2013-02-09 03:47:00,
2013-02-08 22:52:00,70.3,70.0,29.91,West,270,2.0,2.0,99,0.00,,,0.00,meteohub,2013-02-09 03:52:00,
2013-02-08 22:57:00,70.0,69.4,29.91,North,0,3.0,3.0,98,0.00,,,0.00,meteohub,2013-02-09 03:57:00,
2013-02-08 23:02:00,69.8,68.0,29.91,NW,315,5.0,5.0,94,0.00,,,0.00,meteohub,2013-02-09 04:02:00,
2013-02-08 23:07:00,69.8,66.0,29.91,NW,315,3.0,5.0,88,0.00,,,0.00,meteohub,2013-02-09 04:07:00,
2013-02-08 23:13:00,69.8,65.5,29.92,SW,225,1.0,5.0,86,0.00,,,0.00,meteohub,2013-02-09 04:13:00,
2013-02-08 23:18:00,69.4,64.4,29.91,NW,315,2.0,5.0,84,0.00,,,0.00,meteohub,2013-02-09 04:18:00,
2013-02-08 23:23:00,69.4,63.7,29.91,NW,315,2.0,5.0,82,0.00,,,0.00,meteohub,2013-02-09 04:23:00,
2013-02-08 23:28:00,69.3,63.1,29.91,North,0,2.0,4.0,81,0.00,,,0.00,meteohub,2013-02-09 04:28:00,
2013-02-08 23:33:00,69.1,62.6,29.91,NW,315,2.0,4.0,80,0.00,,,0.00,meteohub,2013-02-09 04:33:00,
2013-02-08 23:38:00,68.9,62.1,29.91,NW,315,2.0,4.0,79,0.00,,,0.00,meteohub,2013-02-09 04:38:00,
2013-02-08 23:44:00,68.9,61.7,29.92,NW,315,3.0,4.0,78,0.00,,,0.00,meteohub,2013-02-09 04:44:00,
2013-02-08 23:49:00,68.5,61.7,29.91,NW,315,1.0,4.0,79,0.00,,,0.00,meteohub,2013-02-09 04:49:00,
2013-02-08 23:54:00,68.2,61.3,29.92,NW,315,2.0,4.0,79,0.00,,,0.00,meteohub,2013-02-09 04:54:00,
2013-02-08 23:59:00,68.0,60.8,29.92,NW,315,2.0,3.0,78,0.00,,,0.00,meteohub,2013-02-09 04:59:00,